createdAt,value
2022-12-23T00:01:33.035Z,7.23
2022-12-23T00:04:50.157Z,7.26
2022-12-23T00:10:16.986Z,7.31
2022-12-23T00:11:30.803Z,7.29
2022-12-23T00:18:16.870Z,7.31
2022-12-23T00:19:12.680Z,7.31
2022-12-23T00:21:47.671Z,7.32
2022-12-23T00:23:40.917Z,7.32
2022-12-23T00:28:15.512Z,7.37
2022-12-23T00:29:17.041Z,7.41
2022-12-23T00:30:12.892Z,7.44
2022-12-23T00:31:15.172Z,7.52
2022-12-23T00:34:41.417Z,7.71
2022-12-23T00:45:52.381Z,7.72
2022-12-23T00:48:04.128Z,7.79
2022-12-23T00:50:06.550Z,7.81
2022-12-23T00:52:20.619Z,7.84
2022-12-23T00:53:51.581Z,7.84
2022-12-23T00:54:17.885Z,7.85
2022-12-23T00:56:48.298Z,7.89
2022-12-23T00:59:28.528Z,7.92
2022-12-23T01:03:43.927Z,8.11
2022-12-23T01:05:07.350Z,8.08
2022-12-23T01:06:06.084Z,8.10
2022-12-23T01:11:30.439Z,8.28
2022-12-23T01:14:06.595Z,8.32
2022-12-23T01:15:04.185Z,8.33
2022-12-23T01:22:27.718Z,8.40
2022-12-23T01:23:07.492Z,8.36
2022-12-23T01:25:30.877Z,8.44
2022-12-23T01:27:31.601Z,8.45
2022-12-23T01:28:36.214Z,8.47
2022-12-23T01:29:38.950Z,8.48
2022-12-23T01:31:05.208Z,8.51
2022-12-23T01:31:41.638Z,8.50
2022-12-23T01:32:34.788Z,8.50
2022-12-23T01:36:26.730Z,8.48
2022-12-23T01:38:36.799Z,8.48
2022-12-23T01:39:40.657Z,8.42
2022-12-23T01:40:39.456Z,8.44
2022-12-23T01:41:35.960Z,8.39
2022-12-23T01:48:25.982Z,8.48
2022-12-23T01:54:44.459Z,8.55
2022-12-23T01:55:25.829Z,8.55
2022-12-23T01:58:46.784Z,8.55
2022-12-23T02:00:03.137Z,8.57
2022-12-23T02:01:16.500Z,8.57
2022-12-23T02:01:44.231Z,8.60
2022-12-23T02:03:06.061Z,8.69
2022-12-23T02:05:01.166Z,8.73
2022-12-23T02:05:59.278Z,8.71
2022-12-23T02:07:18.991Z,8.69
2022-12-23T02:08:00.119Z,8.68
2022-12-23T02:08:58.751Z,8.65
2022-12-23T02:09:58.290Z,8.66
2022-12-23T02:13:54.978Z,8.66
2022-12-23T02:15:37.529Z,8.69
2022-12-23T02:16:34.201Z,8.68
2022-12-23T02:17:41.488Z,8.66
2022-12-23T02:18:43.691Z,8.63
2022-12-23T02:23:14.348Z,8.60
2022-12-23T02:24:14.986Z,8.57
2022-12-23T02:25:10.896Z,8.55
2022-12-23T02:26:13.734Z,8.55
2022-12-23T02:27:12.254Z,8.57
2022-12-23T02:28:22.762Z,8.55
2022-12-23T02:29:15.253Z,8.51
2022-12-23T02:30:20.001Z,8.53
2022-12-23T02:32:48.138Z,8.51
2022-12-23T02:33:54.813Z,8.51
2022-12-23T02:34:31.948Z,8.53
2022-12-23T02:35:26.181Z,8.51
2022-12-23T02:36:23.244Z,8.53
2022-12-23T02:37:43.120Z,8.58
2022-12-23T02:38:33.068Z,8.57
2022-12-23T02:39:30.670Z,8.55
2022-12-23T02:40:26.222Z,8.51
2022-12-23T02:41:22.163Z,8.53
2022-12-23T02:42:21.230Z,8.54
2022-12-23T02:43:24.771Z,8.47
2022-12-23T02:44:25.280Z,8.45
2022-12-23T02:45:26.790Z,8.47
2022-12-23T02:46:48.172Z,8.50
2022-12-23T02:47:31.696Z,8.53
2022-12-23T02:48:24.927Z,8.54
2022-12-23T02:49:21.095Z,8.54
2022-12-23T02:50:23.150Z,8.55
2022-12-23T02:51:23.630Z,8.57
2022-12-23T02:52:25.330Z,8.57
2022-12-23T02:53:22.036Z,8.55
2022-12-23T02:54:21.847Z,8.58
2022-12-23T02:55:21.032Z,8.58
2022-12-23T02:56:22.568Z,8.55
2022-12-23T02:57:20.941Z,8.54
2022-12-23T02:58:21.729Z,8.57
2022-12-23T02:59:25.161Z,8.55
2022-12-23T03:00:23.272Z,8.60
2022-12-23T03:01:22.969Z,8.58
2022-12-23T03:02:21.023Z,8.60
2022-12-23T03:03:21.153Z,8.54
2022-12-23T03:04:20.791Z,8.55
2022-12-23T03:05:20.869Z,8.58
2022-12-23T03:06:20.790Z,8.60
2022-12-23T03:07:20.783Z,8.58
2022-12-23T03:08:20.771Z,8.58
2022-12-23T03:09:20.752Z,8.58
2022-12-23T03:10:20.712Z,8.60
2022-12-23T03:11:20.859Z,8.62
2022-12-23T03:12:20.679Z,8.63
2022-12-23T03:13:20.725Z,8.57
2022-12-23T03:14:20.686Z,8.54
2022-12-23T03:15:20.683Z,8.54
2022-12-23T03:16:20.775Z,8.55
2022-12-23T03:17:20.691Z,8.60
2022-12-23T03:18:20.612Z,8.57
2022-12-23T03:19:20.639Z,8.58
2022-12-23T03:20:20.608Z,8.58
2022-12-23T03:21:20.591Z,8.60
2022-12-23T03:22:20.553Z,8.60
2022-12-23T03:23:20.623Z,8.58
2022-12-23T03:24:20.513Z,8.57
2022-12-23T03:25:20.561Z,8.55
2022-12-23T03:26:20.528Z,8.50
2022-12-23T03:27:20.518Z,8.48
2022-12-23T03:28:20.498Z,8.53
2022-12-23T03:29:20.513Z,8.48
2022-12-23T03:30:20.454Z,8.51
2022-12-23T03:31:20.571Z,8.51
2022-12-23T03:32:20.429Z,8.53
2022-12-23T03:33:20.473Z,8.51
2022-12-23T03:34:20.413Z,8.50
2022-12-23T03:35:20.516Z,8.50
2022-12-23T03:36:20.359Z,8.50
2022-12-23T03:37:20.404Z,8.47
2022-12-23T03:38:20.355Z,8.48
2022-12-23T03:39:20.342Z,8.50
2022-12-23T03:40:20.360Z,8.48
2022-12-23T03:41:20.359Z,8.47
2022-12-23T03:42:20.284Z,8.48
2022-12-23T03:43:20.331Z,8.50
2022-12-23T03:44:20.250Z,8.48
2022-12-23T03:45:38.288Z,8.44
2022-12-23T03:46:21.451Z,8.48
2022-12-23T03:47:20.243Z,8.47
2022-12-23T03:48:20.238Z,8.48
2022-12-23T03:49:20.219Z,8.44
2022-12-23T03:50:20.203Z,8.39
2022-12-23T03:51:20.224Z,8.37
2022-12-23T03:52:21.735Z,8.35
2022-12-23T03:53:20.167Z,8.32
2022-12-23T03:54:20.128Z,8.32
2022-12-23T03:55:20.179Z,8.35
2022-12-23T03:56:20.092Z,8.33
2022-12-23T03:57:20.141Z,8.35
2022-12-23T03:58:20.226Z,8.33
2022-12-23T03:59:20.094Z,8.32
2022-12-23T04:00:20.070Z,8.32
2022-12-23T04:01:20.096Z,8.30
2022-12-23T04:02:20.128Z,8.29
2022-12-23T04:03:20.052Z,8.30
2022-12-23T04:04:20.079Z,8.28
2022-12-23T04:05:20.040Z,8.28
2022-12-23T04:06:19.993Z,8.28
2022-12-23T04:07:19.990Z,8.22
2022-12-23T04:08:19.971Z,8.22
2022-12-23T04:09:22.220Z,8.22
2022-12-23T04:10:20.029Z,8.20
2022-12-23T04:11:19.955Z,8.20
2022-12-23T04:12:19.888Z,8.20
2022-12-23T04:13:19.923Z,8.18
2022-12-23T04:14:19.897Z,8.14
2022-12-23T04:15:20.606Z,8.15
2022-12-23T04:16:20.042Z,8.12
2022-12-23T04:17:19.855Z,8.12
2022-12-23T04:18:19.816Z,8.10
2022-12-23T04:19:19.933Z,8.14
2022-12-23T04:20:19.790Z,8.11
2022-12-23T04:21:19.818Z,8.10
2022-12-23T04:22:19.823Z,8.08
2022-12-23T04:23:19.772Z,8.08
2022-12-23T04:24:19.723Z,8.08
2022-12-23T04:25:19.774Z,8.08
2022-12-23T04:26:19.726Z,8.07
2022-12-23T04:27:19.711Z,8.08
2022-12-23T04:28:19.819Z,8.04
2022-12-23T04:29:19.705Z,8.03
2022-12-23T04:30:19.657Z,8.03
2022-12-23T04:31:19.740Z,8.03
2022-12-23T04:32:19.628Z,8.02
2022-12-23T04:33:19.662Z,7.97
2022-12-23T04:34:19.759Z,7.96
2022-12-23T04:35:19.610Z,7.96
2022-12-23T04:36:19.603Z,7.96
2022-12-23T04:37:19.592Z,7.93
2022-12-23T04:38:19.552Z,7.93
2022-12-23T04:39:19.588Z,7.93
2022-12-23T04:40:19.650Z,7.94
2022-12-23T04:41:19.526Z,7.90
2022-12-23T04:42:19.506Z,7.90
2022-12-23T04:43:19.548Z,7.85
2022-12-23T04:44:19.465Z,7.85
2022-12-23T04:45:19.506Z,7.87
2022-12-23T04:46:19.642Z,7.89
2022-12-23T04:47:19.451Z,7.85
2022-12-23T04:48:19.440Z,7.85
2022-12-23T04:49:19.426Z,7.84
2022-12-23T04:50:19.386Z,7.82
2022-12-23T04:51:19.441Z,7.81
2022-12-23T04:52:19.413Z,7.79
2022-12-23T04:53:19.396Z,7.78
2022-12-23T04:54:19.355Z,7.79
2022-12-23T04:55:19.360Z,7.81
2022-12-23T04:56:19.300Z,7.81
2022-12-23T04:57:19.346Z,7.79
2022-12-23T04:58:19.340Z,7.77
2022-12-23T04:59:19.294Z,7.75
2022-12-23T05:00:19.277Z,7.77
2022-12-23T05:01:19.334Z,7.78
2022-12-23T05:02:19.309Z,7.75
2022-12-23T05:03:19.348Z,7.74
2022-12-23T05:04:19.257Z,7.69
2022-12-23T05:05:19.255Z,7.69
2022-12-23T05:06:19.206Z,7.67
2022-12-23T05:07:19.183Z,7.69
2022-12-23T05:08:19.180Z,7.69
2022-12-23T05:09:19.167Z,7.66
2022-12-23T05:10:19.144Z,7.67
2022-12-23T05:11:19.159Z,7.67
2022-12-23T05:12:19.117Z,7.67
2022-12-23T05:13:19.135Z,7.66
2022-12-23T05:14:19.095Z,7.66
2022-12-23T05:15:19.086Z,7.62
2022-12-23T05:16:19.147Z,7.62
2022-12-23T05:17:19.054Z,7.59
2022-12-23T05:18:19.014Z,7.59
2022-12-23T05:19:19.071Z,7.59
2022-12-23T05:20:19.028Z,7.59
2022-12-23T05:21:19.030Z,7.58
2022-12-23T05:22:19.110Z,7.55
2022-12-23T05:23:18.976Z,7.58
2022-12-23T05:24:18.965Z,7.53
2022-12-23T05:25:18.950Z,7.52
2022-12-23T05:26:18.907Z,7.52
2022-12-23T05:27:18.962Z,7.49
2022-12-23T05:28:19.042Z,7.52
2022-12-23T05:29:18.905Z,7.49
2022-12-23T05:30:18.867Z,7.49
2022-12-23T05:31:18.932Z,7.49
2022-12-23T05:32:18.834Z,7.52
2022-12-23T05:33:18.899Z,7.52
2022-12-23T05:34:19.012Z,7.50
2022-12-23T05:35:18.801Z,7.49
2022-12-23T05:36:18.805Z,7.50
2022-12-23T05:37:18.805Z,7.49
2022-12-23T05:38:18.782Z,7.49
2022-12-23T05:39:18.811Z,7.44
2022-12-23T05:40:23.450Z,7.45
2022-12-23T05:41:19.759Z,7.45
2022-12-23T05:42:18.717Z,7.42
2022-12-23T05:43:18.738Z,7.42
2022-12-23T05:44:18.681Z,7.42
2022-12-23T05:45:18.717Z,7.40
2022-12-23T05:46:25.989Z,7.41
2022-12-23T05:47:19.667Z,7.41
2022-12-23T05:48:18.650Z,7.38
2022-12-23T05:49:18.634Z,7.37
2022-12-23T05:50:18.597Z,7.35
2022-12-23T05:51:18.622Z,7.37
2022-12-23T05:52:18.691Z,7.37
2022-12-23T05:53:18.611Z,7.38
2022-12-23T05:54:18.551Z,7.40
2022-12-23T05:55:18.544Z,7.37
2022-12-23T05:56:18.521Z,7.34
2022-12-23T05:57:18.524Z,7.34
2022-12-23T05:58:18.524Z,7.32
2022-12-23T05:59:18.524Z,7.32
2022-12-23T06:00:18.484Z,7.34
2022-12-23T06:01:18.485Z,7.34
2022-12-23T06:02:18.565Z,7.32
2022-12-23T06:03:18.655Z,7.32
2022-12-23T06:04:18.542Z,7.31
2022-12-23T06:05:18.462Z,7.32
2022-12-23T06:06:18.429Z,7.32
2022-12-23T06:07:18.408Z,7.34
2022-12-23T06:08:18.377Z,7.31
2022-12-23T06:09:18.380Z,7.31
2022-12-23T06:10:18.360Z,7.29
2022-12-23T06:11:18.375Z,7.27
2022-12-23T06:12:18.309Z,7.27
2022-12-23T06:13:18.355Z,7.31
2022-12-23T06:14:21.399Z,7.29
2022-12-23T06:15:19.399Z,7.27
2022-12-23T06:16:18.320Z,7.27
2022-12-23T06:17:18.264Z,7.27
2022-12-23T06:18:18.296Z,7.27
2022-12-23T06:19:18.202Z,7.27
2022-12-23T06:20:20.970Z,7.26
2022-12-23T06:21:18.198Z,7.24
2022-12-23T06:22:18.203Z,7.24
2022-12-23T06:23:18.188Z,7.24
2022-12-23T06:24:18.184Z,7.23
2022-12-23T06:25:18.169Z,7.23
2022-12-23T06:26:18.520Z,7.20
2022-12-23T06:27:18.121Z,7.22
2022-12-23T06:28:18.143Z,7.22
2022-12-23T06:29:18.888Z,7.23
2022-12-23T06:30:50.783Z,7.23
2022-12-23T06:31:18.118Z,7.22
2022-12-23T06:32:18.182Z,7.22
2022-12-23T06:33:18.184Z,7.22
2022-12-23T06:34:18.048Z,7.23
2022-12-23T06:35:18.043Z,7.23
2022-12-23T06:36:18.036Z,7.23
2022-12-23T06:37:18.057Z,7.23
2022-12-23T06:38:18.034Z,7.22
2022-12-23T06:39:18.013Z,7.22
2022-12-23T06:40:18.017Z,7.22
2022-12-23T06:41:17.954Z,7.22
2022-12-23T06:42:17.942Z,7.20
2022-12-23T06:43:17.924Z,7.22
2022-12-23T06:44:17.907Z,7.20
2022-12-23T06:45:17.930Z,7.22
2022-12-23T06:46:17.990Z,7.20
2022-12-23T06:47:17.875Z,7.22
2022-12-23T06:48:17.878Z,7.22
2022-12-23T06:49:17.830Z,7.23
2022-12-23T06:50:17.887Z,7.23
2022-12-23T06:51:17.833Z,7.23
2022-12-23T06:52:17.836Z,7.23
2022-12-23T06:53:17.791Z,7.24
2022-12-23T06:54:17.780Z,7.26
2022-12-23T06:55:17.790Z,7.26
2022-12-23T06:56:17.749Z,7.24
2022-12-23T06:57:17.851Z,7.23
2022-12-23T06:58:17.756Z,7.22
2022-12-23T06:59:17.683Z,7.22
2022-12-23T07:00:17.720Z,7.20
2022-12-23T07:01:17.724Z,7.19
2022-12-23T07:02:17.850Z,7.19
2022-12-23T07:03:17.841Z,7.20
2022-12-23T07:04:17.694Z,7.22
2022-12-23T07:05:17.629Z,7.22
2022-12-23T07:06:17.620Z,7.23
2022-12-23T07:07:17.602Z,7.24
2022-12-23T07:08:17.609Z,7.26
2022-12-23T07:09:17.670Z,7.24
2022-12-23T07:10:17.622Z,7.24
2022-12-23T07:11:17.537Z,7.26
2022-12-23T07:12:17.570Z,7.26
2022-12-23T07:13:17.513Z,7.24
2022-12-23T07:14:17.542Z,7.24
2022-12-23T07:15:17.543Z,7.24
2022-12-23T07:16:17.567Z,7.24
2022-12-23T07:17:17.467Z,7.27
2022-12-23T07:18:17.491Z,7.27
2022-12-23T07:19:17.435Z,7.29
2022-12-23T07:20:17.486Z,7.31
2022-12-23T07:21:26.531Z,7.29
2022-12-23T07:22:18.432Z,7.29
2022-12-23T07:23:17.403Z,7.32
2022-12-23T07:24:17.396Z,7.35
2022-12-23T07:25:17.368Z,7.32
2022-12-23T07:26:17.378Z,7.29
2022-12-23T07:27:17.352Z,7.24
2022-12-23T07:28:17.356Z,7.22
2022-12-23T07:29:17.322Z,7.22
2022-12-23T07:30:17.315Z,7.20
2022-12-23T07:31:17.311Z,7.22
2022-12-23T07:32:17.278Z,7.22
2022-12-23T07:33:17.282Z,7.23
2022-12-23T07:34:17.276Z,7.24
2022-12-23T07:35:17.228Z,7.24
2022-12-23T07:36:17.240Z,7.24
2022-12-23T07:37:17.194Z,7.23
2022-12-23T07:38:17.227Z,7.23
2022-12-23T07:39:17.191Z,7.22
2022-12-23T07:40:17.198Z,7.23
2022-12-23T07:41:17.162Z,7.24
2022-12-23T07:42:43.626Z,7.29
2022-12-23T07:43:18.139Z,7.27
2022-12-23T07:44:17.147Z,7.24
2022-12-23T07:45:17.191Z,7.26
2022-12-23T07:46:17.194Z,7.27
2022-12-23T07:47:17.070Z,7.29
2022-12-23T07:48:17.099Z,7.29
2022-12-23T07:49:17.069Z,7.29
2022-12-23T07:50:17.046Z,7.29
2022-12-23T07:51:17.050Z,7.31
2022-12-23T07:52:17.065Z,7.29
2022-12-23T07:53:17.007Z,7.29
2022-12-23T07:54:16.993Z,7.31
2022-12-23T07:55:16.975Z,7.29
2022-12-23T07:56:16.971Z,7.31
2022-12-23T07:57:17.195Z,7.27
2022-12-23T07:58:16.961Z,7.24
2022-12-23T07:59:16.909Z,7.26
2022-12-23T08:00:16.963Z,7.23
2022-12-23T08:01:16.965Z,7.19
2022-12-23T08:02:17.083Z,7.17
2022-12-23T08:03:17.081Z,7.20
2022-12-23T08:04:16.877Z,7.22
2022-12-23T08:05:16.982Z,7.24
2022-12-23T08:06:16.932Z,7.26
2022-12-23T08:07:16.834Z,7.31
2022-12-23T08:08:16.800Z,7.32
2022-12-23T08:09:16.788Z,7.32
2022-12-23T08:10:16.834Z,7.29
2022-12-23T08:11:16.753Z,7.24
2022-12-23T08:12:16.792Z,7.22
2022-12-23T08:13:16.757Z,7.22
2022-12-23T08:14:16.720Z,7.19
2022-12-23T08:15:16.746Z,7.17
2022-12-23T08:16:16.741Z,7.17
2022-12-23T08:17:16.895Z,7.19
2022-12-23T08:18:16.686Z,7.19
2022-12-23T08:19:16.643Z,7.19
2022-12-23T08:20:16.679Z,7.19
2022-12-23T08:21:16.681Z,7.19
2022-12-23T08:22:16.631Z,7.20
2022-12-23T08:23:20.000Z,7.20
2022-12-23T08:24:17.614Z,7.20
2022-12-23T08:25:16.602Z,7.20
2022-12-23T08:26:16.606Z,7.22
2022-12-23T08:27:16.552Z,7.20
2022-12-23T08:28:16.562Z,7.22
2022-12-23T08:29:16.542Z,7.22
2022-12-23T08:30:16.518Z,7.22
2022-12-23T08:31:16.598Z,7.23
2022-12-23T08:32:16.485Z,7.23
2022-12-23T08:33:16.467Z,7.22
2022-12-23T08:34:16.494Z,7.23
2022-12-23T08:35:16.436Z,7.22
2022-12-23T08:36:22.409Z,7.24
2022-12-23T08:37:17.429Z,7.24
2022-12-23T08:38:16.407Z,7.26
2022-12-23T08:39:16.501Z,7.26
2022-12-23T08:40:16.414Z,7.24
2022-12-23T08:41:16.373Z,7.26
2022-12-23T08:42:16.378Z,7.26
2022-12-23T08:43:16.337Z,7.26
2022-12-23T08:44:16.330Z,7.27
2022-12-23T08:45:16.437Z,7.29
2022-12-23T08:46:16.365Z,7.29
2022-12-23T08:47:18.996Z,7.31
2022-12-23T08:48:16.327Z,7.32
2022-12-23T08:49:16.289Z,7.32
2022-12-23T08:50:16.265Z,7.32
2022-12-23T08:51:16.354Z,7.34
2022-12-23T08:52:16.240Z,7.35
2022-12-23T08:53:16.194Z,7.35
2022-12-23T08:54:16.231Z,7.37
2022-12-23T08:55:16.207Z,7.38
2022-12-23T08:56:16.167Z,7.41
2022-12-23T08:57:16.266Z,7.40
2022-12-23T08:58:16.181Z,7.40
2022-12-23T08:59:19.142Z,7.41
2022-12-23T09:00:16.143Z,7.41
2022-12-23T09:01:16.171Z,7.42
2022-12-23T09:02:16.269Z,7.41
2022-12-23T09:03:16.346Z,7.40
2022-12-23T09:04:16.080Z,7.40
2022-12-23T09:05:16.102Z,7.41
2022-12-23T09:06:16.068Z,7.40
2022-12-23T09:07:16.002Z,7.40
2022-12-23T09:08:16.049Z,7.41
2022-12-23T09:09:16.107Z,7.41
2022-12-23T09:10:16.010Z,7.41
2022-12-23T09:11:15.957Z,7.42
2022-12-23T09:12:15.989Z,7.41
2022-12-23T09:13:24.941Z,7.41
2022-12-23T09:14:17.074Z,7.41
2022-12-23T09:15:15.946Z,7.41
2022-12-23T09:16:15.945Z,7.41
2022-12-23T09:17:15.880Z,7.44
2022-12-23T09:18:15.929Z,7.42
2022-12-23T09:19:15.845Z,7.45
2022-12-23T09:20:15.914Z,7.45
2022-12-23T09:21:15.861Z,7.45
2022-12-23T09:22:15.835Z,7.47
2022-12-23T09:23:15.824Z,7.50
2022-12-23T09:24:15.811Z,7.49
2022-12-23T09:25:15.785Z,7.49
2022-12-23T09:26:15.930Z,7.49
2022-12-23T09:27:15.753Z,7.49
2022-12-23T09:28:15.788Z,7.47
2022-12-23T09:29:15.740Z,7.50
2022-12-23T09:30:15.724Z,7.53
2022-12-23T09:31:15.757Z,7.53
2022-12-23T09:32:15.726Z,7.55
2022-12-23T09:33:15.657Z,7.53
2022-12-23T09:34:15.682Z,7.55
2022-12-23T09:35:15.610Z,7.55
2022-12-23T09:36:15.647Z,7.56
2022-12-23T09:37:15.603Z,7.56
2022-12-23T09:38:15.707Z,7.60
2022-12-23T09:39:15.578Z,7.59
2022-12-23T09:40:15.572Z,7.63
2022-12-23T09:41:15.535Z,7.63
2022-12-23T09:42:15.570Z,7.66
2022-12-23T09:43:15.533Z,7.63
2022-12-23T09:44:15.551Z,7.63
2022-12-23T09:45:15.473Z,7.66
2022-12-23T09:46:15.550Z,7.62
2022-12-23T09:47:15.453Z,7.60
2022-12-23T09:48:15.489Z,7.58
2022-12-23T09:49:15.447Z,7.58
2022-12-23T09:50:15.541Z,7.58
2022-12-23T09:51:15.419Z,7.59
2022-12-23T09:52:15.411Z,7.58
2022-12-23T09:53:15.380Z,7.59
2022-12-23T09:54:17.402Z,7.59
2022-12-23T09:55:15.340Z,7.59
2022-12-23T09:56:15.489Z,7.59
2022-12-23T09:57:15.342Z,7.59
2022-12-23T09:58:15.335Z,7.60
2022-12-23T09:59:15.286Z,7.62
2022-12-23T10:00:15.356Z,7.63
2022-12-23T10:01:15.374Z,7.63
2022-12-23T10:02:15.450Z,7.63
2022-12-23T10:03:15.542Z,7.67
2022-12-23T10:04:15.289Z,7.71
2022-12-23T10:05:15.213Z,7.67
2022-12-23T10:06:15.252Z,7.71
2022-12-23T10:07:15.187Z,7.72
2022-12-23T10:08:15.255Z,7.74
2022-12-23T10:09:15.184Z,7.75
2022-12-23T10:10:15.171Z,7.74
2022-12-23T10:11:15.158Z,7.78
2022-12-23T10:12:15.149Z,7.78
2022-12-23T10:13:15.098Z,7.78
2022-12-23T10:14:15.175Z,7.78
2022-12-23T10:15:15.168Z,7.79
2022-12-23T10:16:15.119Z,7.81
2022-12-23T10:17:15.056Z,7.81
2022-12-23T10:18:15.088Z,7.82
2022-12-23T10:19:15.020Z,7.87
2022-12-23T10:20:15.099Z,7.87
2022-12-23T10:21:15.797Z,7.89
2022-12-23T10:22:15.013Z,7.89
2022-12-23T10:23:15.004Z,7.92
2022-12-23T10:24:14.983Z,7.94
2022-12-23T10:25:14.941Z,7.97
2022-12-23T10:26:15.021Z,7.99
2022-12-23T10:27:14.912Z,8.03
2022-12-23T10:28:14.957Z,8.10
2022-12-23T10:29:18.703Z,8.11
2022-12-23T10:30:42.443Z,8.14
2022-12-23T10:31:40.412Z,8.14
2022-12-23T10:32:15.948Z,8.17
2022-12-23T10:33:14.891Z,8.20
2022-12-23T10:34:14.816Z,8.18
2022-12-23T10:35:14.861Z,8.17
2022-12-23T10:36:14.910Z,8.17
2022-12-23T10:37:14.842Z,8.15
2022-12-23T10:38:14.792Z,8.17
2022-12-23T10:39:14.775Z,8.18
2022-12-23T10:40:14.763Z,8.17
2022-12-23T10:41:14.781Z,8.18
2022-12-23T10:42:14.721Z,8.17
2022-12-23T10:43:14.797Z,8.20
2022-12-23T10:44:14.699Z,8.20
2022-12-23T10:45:14.701Z,8.20
2022-12-23T10:46:14.714Z,8.14
2022-12-23T10:47:14.705Z,8.07
2022-12-23T10:48:14.640Z,8.04
2022-12-23T10:49:14.680Z,8.02
2022-12-23T10:50:14.629Z,7.99
2022-12-23T10:51:14.625Z,7.99
2022-12-23T10:52:14.607Z,7.97
2022-12-23T10:53:14.624Z,7.94
2022-12-23T10:54:14.550Z,7.94
2022-12-23T10:55:14.713Z,7.96
2022-12-23T10:56:14.529Z,7.93
2022-12-23T10:57:14.547Z,7.94
2022-12-23T10:58:14.553Z,7.94
2022-12-23T10:59:14.511Z,7.94
2022-12-23T11:00:14.497Z,7.93
2022-12-23T11:01:22.044Z,7.92
2022-12-23T11:02:15.555Z,7.93
2022-12-23T11:03:14.530Z,7.94
2022-12-23T11:04:14.446Z,7.96
2022-12-23T11:05:14.466Z,7.96
2022-12-23T11:06:14.395Z,7.97
2022-12-23T11:08:15.369Z,7.99
2022-12-23T11:09:14.379Z,7.97
2022-12-23T11:10:14.369Z,7.99
2022-12-23T11:11:14.355Z,7.99
2022-12-23T11:12:14.342Z,8.02
2022-12-23T11:13:14.472Z,8.03
2022-12-23T11:14:14.292Z,8.03
2022-12-23T11:15:14.333Z,8.04
2022-12-23T11:16:14.319Z,8.04
2022-12-23T11:17:14.280Z,8.07
2022-12-23T11:18:14.291Z,8.08
2022-12-23T11:19:14.309Z,8.08
2022-12-23T11:20:14.223Z,8.10
2022-12-23T11:21:14.226Z,8.11
2022-12-23T11:22:14.213Z,8.12
2022-12-23T11:23:14.197Z,8.14
2022-12-23T11:24:14.212Z,8.15
2022-12-23T11:25:14.224Z,8.17
2022-12-23T11:26:14.172Z,8.17
2022-12-23T11:27:14.196Z,8.18
2022-12-23T11:28:14.108Z,8.22
2022-12-23T11:29:14.115Z,8.26
2022-12-23T11:30:14.183Z,8.29
2022-12-23T11:31:14.272Z,8.28
2022-12-23T11:32:14.092Z,8.25
2022-12-23T11:33:14.093Z,8.22
2022-12-23T11:34:14.028Z,8.18
2022-12-23T11:35:14.096Z,8.20
2022-12-23T11:36:14.022Z,8.20
2022-12-23T11:37:14.031Z,8.18
2022-12-23T11:38:13.998Z,8.21
2022-12-23T11:39:13.987Z,8.25
2022-12-23T11:40:13.976Z,8.25
2022-12-23T11:41:13.980Z,8.21
2022-12-23T11:42:13.920Z,8.18
2022-12-23T11:43:14.083Z,8.17
2022-12-23T11:44:13.885Z,8.15
2022-12-23T11:45:13.906Z,8.15
2022-12-23T11:46:13.966Z,8.12
2022-12-23T11:47:13.876Z,8.12
2022-12-23T11:48:13.861Z,8.14
2022-12-23T11:49:13.908Z,8.14
2022-12-23T11:50:13.841Z,8.15
2022-12-23T11:51:13.826Z,8.20
2022-12-23T11:52:13.812Z,8.25
2022-12-23T11:53:13.816Z,8.28
2022-12-23T11:54:13.753Z,8.30
2022-12-23T11:55:13.910Z,8.29
2022-12-23T11:56:13.733Z,8.29
2022-12-23T11:57:13.823Z,8.29
2022-12-23T11:58:13.723Z,8.26
2022-12-23T11:59:13.719Z,8.25
2022-12-23T12:00:13.704Z,8.22
2022-12-23T12:01:13.834Z,8.25
2022-12-23T12:02:13.686Z,8.25
2022-12-23T12:03:13.708Z,8.29
2022-12-23T12:04:13.625Z,8.30
2022-12-23T12:05:13.628Z,8.26
2022-12-23T12:06:13.616Z,8.28
2022-12-23T12:07:13.743Z,8.26
2022-12-23T12:08:13.566Z,8.28
2022-12-23T12:09:13.581Z,8.22
2022-12-23T12:10:13.587Z,8.18
2022-12-23T12:11:13.553Z,8.15
2022-12-23T12:12:13.545Z,8.12
2022-12-23T12:13:13.593Z,8.11
2022-12-23T12:14:13.482Z,8.14
2022-12-23T12:15:13.528Z,8.14
2022-12-23T12:16:13.506Z,8.11
2022-12-23T12:17:13.518Z,8.10
2022-12-23T12:18:13.473Z,8.10
2022-12-23T12:19:13.482Z,8.10
2022-12-23T12:20:13.443Z,8.10
2022-12-23T12:21:13.450Z,8.08
2022-12-23T12:22:13.374Z,8.11
2022-12-23T12:23:13.395Z,8.12
2022-12-23T12:24:18.961Z,8.11
2022-12-23T12:25:14.425Z,8.11
2022-12-23T12:26:13.324Z,8.10
2022-12-23T12:27:13.372Z,8.11
2022-12-23T12:28:13.318Z,8.14
2022-12-23T12:29:13.327Z,8.14
2022-12-23T12:30:13.343Z,8.15
2022-12-23T12:31:13.339Z,8.14
2022-12-23T12:32:13.273Z,8.15
2022-12-23T12:33:13.284Z,8.14
2022-12-23T12:34:13.216Z,8.12
2022-12-23T12:35:13.263Z,8.12
2022-12-23T12:36:13.238Z,8.11
2022-12-23T12:37:13.251Z,8.10
2022-12-23T12:38:13.210Z,8.11
2022-12-23T12:39:13.178Z,8.11
2022-12-23T12:40:13.168Z,8.14
2022-12-23T12:41:13.182Z,8.14
2022-12-23T12:42:13.106Z,8.15
2022-12-23T12:43:13.177Z,8.14
2022-12-23T12:44:13.082Z,8.14
2022-12-23T12:45:13.106Z,8.15
2022-12-23T12:46:13.139Z,8.17
2022-12-23T12:47:36.188Z,8.15
2022-12-23T12:48:18.801Z,8.14
2022-12-23T12:49:14.087Z,8.14
2022-12-23T12:50:13.056Z,8.15
2022-12-23T12:51:13.041Z,8.15
2022-12-23T12:52:12.973Z,8.14
2022-12-23T12:53:13.009Z,8.12
2022-12-23T12:54:13.085Z,8.12
2022-12-23T12:55:12.989Z,8.11
2022-12-23T12:56:12.922Z,8.11
2022-12-23T12:57:12.939Z,8.11
2022-12-23T12:58:12.939Z,8.11
2022-12-23T12:59:12.905Z,8.11
2022-12-23T13:00:12.946Z,8.10
2022-12-23T13:01:12.960Z,8.08
2022-12-23T13:02:12.882Z,8.07
2022-12-23T13:03:12.911Z,8.07
2022-12-23T13:04:12.813Z,8.07
2022-12-23T13:05:12.854Z,8.04
2022-12-23T13:06:12.849Z,8.07
2022-12-23T13:07:12.824Z,8.07
2022-12-23T13:08:12.790Z,8.07
2022-12-23T13:09:13.069Z,8.08
2022-12-23T13:10:12.743Z,8.07
2022-12-23T13:11:12.752Z,8.04
2022-12-23T13:12:12.763Z,8.03
2022-12-23T13:13:12.753Z,8.02
2022-12-23T13:14:12.691Z,8.02
2022-12-23T13:15:12.723Z,8.02
2022-12-23T13:16:12.677Z,8.02
2022-12-23T13:17:12.713Z,8.02
2022-12-23T13:18:12.826Z,8.00
2022-12-23T13:19:12.652Z,8.00
2022-12-23T13:20:12.635Z,8.00
2022-12-23T13:21:12.650Z,8.00
2022-12-23T13:22:12.568Z,8.00
2022-12-23T13:23:41.672Z,8.00
2022-12-23T13:24:13.577Z,8.00
2022-12-23T13:25:12.559Z,8.00
2022-12-23T13:26:12.553Z,7.99
2022-12-23T13:27:12.575Z,8.00
2022-12-23T13:28:12.499Z,7.97
2022-12-23T13:30:23.569Z,7.97
2022-12-23T13:31:23.579Z,7.94
2022-12-23T13:32:23.511Z,7.93
2022-12-23T13:33:23.521Z,7.92
2022-12-23T13:34:23.452Z,7.93
2022-12-23T13:35:23.417Z,7.94
2022-12-23T13:36:23.599Z,7.93
2022-12-23T13:37:23.420Z,7.93
2022-12-23T13:38:23.402Z,7.92
2022-12-23T13:39:23.400Z,7.93
2022-12-23T13:40:23.373Z,7.92
2022-12-23T13:41:23.332Z,7.90
2022-12-23T13:42:23.488Z,7.92
2022-12-23T13:43:23.322Z,7.92
2022-12-23T13:44:26.043Z,7.90
2022-12-23T13:45:30.127Z,7.90
2022-12-23T13:46:29.266Z,7.89
2022-12-23T13:47:27.073Z,7.89
2022-12-23T13:48:25.611Z,7.89
2022-12-23T13:49:23.686Z,7.87
2022-12-23T13:50:26.695Z,7.87
2022-12-23T13:51:31.688Z,7.87
2022-12-23T13:52:24.401Z,7.85
2022-12-23T13:53:26.906Z,7.85
2022-12-23T13:54:27.327Z,7.84
2022-12-23T13:55:23.227Z,7.85
2022-12-23T13:56:25.586Z,7.82
2022-12-23T13:57:23.989Z,7.85
2022-12-23T13:58:23.660Z,7.84
2022-12-23T13:59:23.874Z,7.84
2022-12-23T14:00:25.456Z,7.85
2022-12-23T14:01:24.013Z,7.84
2022-12-23T14:02:27.873Z,7.82
2022-12-23T14:03:24.396Z,7.82
2022-12-23T14:04:33.013Z,7.81
2022-12-23T14:05:24.217Z,7.82
2022-12-23T14:06:29.733Z,7.79
2022-12-23T14:07:23.106Z,7.81
2022-12-23T14:08:23.940Z,7.81
2022-12-23T14:09:23.031Z,7.79
2022-12-23T14:10:23.018Z,7.79
2022-12-23T14:11:33.099Z,7.79
2022-12-23T14:12:24.370Z,7.78
2022-12-23T14:13:24.605Z,7.79
2022-12-23T14:14:47.136Z,7.77
2022-12-23T14:15:25.103Z,7.78
2022-12-23T14:16:27.327Z,7.78
2022-12-23T14:17:55.586Z,7.77
2022-12-23T14:18:23.275Z,7.77
2022-12-23T14:19:22.889Z,7.77
2022-12-23T14:20:22.926Z,7.78
2022-12-23T14:21:23.096Z,7.78
2022-12-23T14:22:33.255Z,7.77
2022-12-23T14:23:23.349Z,7.78
2022-12-23T14:24:32.881Z,7.74
2022-12-23T14:25:23.744Z,7.75
2022-12-23T14:26:27.834Z,7.75
2022-12-23T14:27:29.252Z,7.75
2022-12-23T14:28:24.796Z,7.75
2022-12-23T14:29:23.149Z,7.75
2022-12-23T14:30:27.186Z,7.74
2022-12-23T14:31:22.799Z,7.74
2022-12-23T14:32:22.771Z,7.74
2022-12-23T14:33:23.691Z,7.74
2022-12-23T14:34:23.602Z,7.74
2022-12-23T14:35:23.659Z,7.72
2022-12-23T14:36:23.089Z,7.72
2022-12-23T14:37:23.019Z,7.72
2022-12-23T14:38:32.591Z,7.72
2022-12-23T14:39:27.334Z,7.72
2022-12-23T14:40:27.250Z,7.71
2022-12-23T14:41:22.950Z,7.72
2022-12-23T14:42:22.631Z,7.71
2022-12-23T14:43:22.955Z,7.69
2022-12-23T14:44:22.848Z,7.69